createdAt,value
2019-01-04T00:00:37.340Z,100.00
2019-01-04T00:03:09.727Z,100.00
2019-01-04T00:05:39.263Z,100.00
2019-01-04T00:08:09.138Z,100.00
2019-01-04T00:10:38.915Z,100.00
2019-01-04T00:13:09.266Z,100.00
2019-01-04T00:15:39.090Z,100.00
2019-01-04T00:18:08.559Z,100.00
2019-01-04T00:20:38.021Z,100.00
2019-01-04T00:23:07.533Z,100.00
2019-01-04T00:25:37.026Z,100.00
2019-01-04T00:28:06.504Z,100.00
2019-01-04T00:30:36.324Z,100.00
2019-01-04T00:33:06.328Z,100.00
2019-01-04T00:35:35.779Z,100.00
2019-01-04T00:38:05.386Z,100.00
2019-01-04T00:40:34.861Z,100.00
2019-01-04T00:43:04.324Z,100.00
2019-01-04T00:45:33.880Z,100.00
2019-01-04T00:48:03.333Z,100.00
2019-01-04T00:50:32.808Z,100.00
2019-01-04T00:53:02.269Z,100.00
2019-01-04T00:55:56.144Z,100.00
2019-01-04T00:58:43.622Z,100.00
2019-01-04T01:01:25.186Z,100.00
2019-01-04T01:04:09.785Z,100.00
2019-01-04T01:06:59.770Z,100.00
2019-01-04T01:09:50.819Z,100.00
2019-01-04T01:12:57.610Z,100.00
2019-01-04T01:15:45.293Z,100.00
2019-01-04T01:18:29.811Z,100.00
2019-01-04T01:21:34.196Z,100.00
2019-01-04T01:24:38.807Z,100.00
2019-01-04T01:27:17.098Z,100.00
2019-01-04T01:30:21.952Z,100.00
2019-01-04T01:33:10.262Z,100.00
2019-01-04T01:35:59.746Z,100.00
2019-01-04T01:38:49.023Z,100.00
2019-01-04T01:41:56.502Z,100.00
2019-01-04T01:44:50.717Z,100.00
2019-01-04T01:47:23.348Z,100.00
2019-01-04T01:50:24.691Z,100.00
2019-01-04T01:52:54.157Z,100.00
2019-01-04T01:55:23.633Z,100.00
2019-01-04T01:57:53.241Z,100.00
2019-01-04T02:00:23.018Z,100.00
2019-01-04T02:02:52.498Z,100.00
2019-01-04T02:05:22.263Z,100.00
2019-01-04T02:07:53.683Z,100.00
2019-01-04T02:10:23.149Z,100.00
2019-01-04T02:12:52.981Z,100.00
2019-01-04T02:15:22.440Z,100.00
2019-01-04T02:17:52.462Z,100.00
2019-01-04T02:20:22.167Z,100.00
2019-01-04T02:22:51.994Z,100.00
2019-01-04T02:25:21.448Z,100.00
2019-01-04T02:27:50.923Z,100.00
2019-01-04T02:30:20.679Z,100.00
2019-01-04T02:32:50.138Z,100.00
2019-01-04T02:35:19.896Z,100.00
2019-01-04T02:37:49.372Z,100.00
2019-01-04T02:40:18.934Z,100.00
2019-01-04T02:42:48.735Z,100.00
2019-01-04T02:45:18.216Z,100.00
2019-01-04T02:47:47.678Z,100.00
2019-01-04T02:50:17.144Z,100.00
2019-01-04T02:52:46.773Z,100.00
2019-01-04T02:55:16.307Z,100.00
2019-01-04T02:57:45.758Z,100.00
2019-01-04T03:00:15.483Z,100.00
2019-01-04T03:02:44.943Z,100.00
2019-01-04T03:05:14.491Z,100.00
2019-01-04T03:07:43.953Z,100.00
2019-01-04T03:10:13.484Z,100.00
2019-01-04T03:12:42.941Z,100.00
2019-01-04T03:15:12.417Z,100.00
2019-01-04T03:17:41.861Z,100.00
2019-01-04T03:20:11.332Z,100.00
2019-01-04T03:22:40.860Z,100.00
2019-01-04T03:25:10.332Z,100.00
2019-01-04T03:27:39.785Z,100.00
2019-01-04T03:30:09.259Z,100.00
2019-01-04T03:32:38.718Z,100.00
2019-01-04T03:35:08.353Z,100.00
2019-01-04T03:37:37.805Z,100.00
2019-01-04T03:40:09.665Z,100.00
2019-01-04T03:42:39.342Z,100.00
2019-01-04T03:45:08.805Z,100.00
2019-01-04T03:47:38.542Z,100.00
2019-01-04T03:50:08.002Z,100.00
2019-01-04T03:52:37.457Z,100.00
2019-01-04T03:55:06.918Z,100.00
2019-01-04T03:57:36.664Z,100.00
2019-01-04T04:00:08.294Z,100.00
2019-01-04T04:02:37.748Z,100.00
2019-01-04T04:05:07.209Z,100.00
2019-01-04T04:07:36.672Z,100.00
2019-01-04T04:10:07.618Z,100.00
2019-01-04T04:12:37.384Z,100.00
2019-01-04T04:15:07.107Z,100.00
2019-01-04T04:17:36.568Z,100.00
2019-01-04T04:20:07.254Z,100.00
2019-01-04T04:22:36.706Z,100.00
2019-01-04T04:25:06.262Z,100.00
2019-01-04T04:27:35.709Z,100.00
2019-01-04T04:30:07.503Z,100.00
2019-01-04T04:32:37.326Z,100.00
2019-01-04T04:35:06.799Z,100.00
2019-01-04T04:37:36.249Z,100.00
2019-01-04T04:40:05.958Z,100.00
2019-01-04T04:42:35.426Z,100.00
2019-01-04T04:45:05.103Z,100.00
2019-01-04T04:47:34.592Z,100.00
2019-01-04T04:50:04.048Z,100.00
2019-01-04T04:52:33.651Z,100.00
2019-01-04T04:55:03.409Z,100.00
2019-01-04T04:57:32.856Z,100.00
2019-01-04T05:00:02.401Z,100.00
2019-01-04T05:02:31.871Z,100.00
2019-01-04T05:05:01.619Z,100.00
2019-01-04T05:07:31.161Z,100.00
2019-01-04T05:10:00.778Z,100.00
2019-01-04T05:12:30.238Z,100.00
2019-01-04T05:14:59.691Z,100.00
2019-01-04T05:17:29.168Z,100.00
2019-01-04T05:19:58.661Z,100.00
2019-01-04T05:22:28.222Z,100.00
2019-01-04T05:24:57.674Z,100.00
2019-01-04T05:27:27.142Z,100.00
2019-01-04T05:29:56.616Z,100.00
2019-01-04T05:32:26.083Z,100.00
2019-01-04T05:34:55.728Z,100.00
2019-01-04T05:37:25.380Z,100.00
2019-01-04T05:39:54.840Z,100.00
2019-01-04T05:42:24.541Z,100.00
2019-01-04T05:44:54.938Z,100.00
2019-01-04T05:47:24.772Z,100.00
2019-01-04T05:49:54.474Z,100.00
2019-01-04T05:52:24.280Z,100.00
2019-01-04T05:54:53.728Z,100.00
2019-01-04T05:57:23.196Z,100.00
2019-01-04T05:59:52.651Z,100.00
2019-01-04T06:02:22.129Z,100.00
2019-01-04T06:04:53.549Z,100.00
2019-01-04T06:07:24.649Z,100.00
2019-01-04T06:09:54.144Z,100.00
2019-01-04T06:12:23.931Z,100.00
2019-01-04T06:14:53.394Z,100.00
2019-01-04T06:17:23.233Z,100.00
2019-01-04T06:19:52.704Z,100.00
2019-01-04T06:22:22.170Z,100.00
2019-01-04T06:24:51.640Z,100.00
2019-01-04T06:27:21.109Z,100.00
2019-01-04T06:29:50.558Z,100.00
2019-01-04T06:32:20.036Z,100.00
2019-01-04T06:34:49.491Z,100.00
2019-01-04T06:37:20.165Z,100.00
2019-01-04T06:39:49.624Z,100.00
2019-01-04T06:42:19.091Z,100.00
2019-01-04T06:44:48.547Z,100.00
2019-01-04T06:47:18.274Z,100.00
2019-01-04T06:49:47.737Z,100.00
2019-01-04T06:52:17.191Z,100.00
2019-01-04T06:55:18.811Z,100.00
2019-01-04T06:57:48.337Z,100.00
2019-01-04T07:00:17.810Z,100.00
2019-01-04T07:02:47.277Z,100.00
2019-01-04T07:05:16.727Z,100.00
2019-01-04T07:07:46.198Z,100.00
2019-01-04T07:10:16.235Z,100.00
2019-01-04T07:12:46.162Z,100.00
2019-01-04T07:15:15.616Z,100.00
2019-01-04T07:17:45.081Z,100.00
2019-01-04T07:20:14.621Z,100.00
2019-01-04T07:22:44.070Z,100.00
2019-01-04T07:25:13.529Z,100.00
2019-01-04T07:27:43.029Z,100.00
2019-01-04T07:30:12.776Z,100.00
2019-01-04T07:32:42.238Z,100.00
2019-01-04T07:35:12.011Z,100.00
2019-01-04T07:37:41.487Z,100.00
2019-01-04T07:40:10.941Z,100.00
2019-01-04T07:42:40.412Z,100.00
2019-01-04T07:45:10.309Z,100.00
2019-01-04T07:47:39.779Z,100.00
2019-01-04T07:50:09.302Z,100.00
2019-01-04T07:52:38.977Z,100.00
2019-01-04T07:55:08.879Z,100.00
2019-01-04T07:57:38.435Z,100.00
2019-01-04T08:00:10.706Z,100.00
2019-01-04T08:02:42.783Z,100.00
2019-01-04T08:05:19.213Z,100.00
2019-01-04T08:07:48.687Z,100.00
2019-01-04T08:10:18.143Z,100.00
2019-01-04T08:12:47.615Z,100.00
2019-01-04T08:15:17.059Z,100.00
2019-01-04T08:17:46.526Z,100.00
2019-01-04T08:20:16.323Z,100.00
2019-01-04T08:22:45.804Z,100.00
2019-01-04T08:25:15.257Z,100.00
2019-01-04T08:27:44.722Z,100.00
2019-01-04T08:30:14.333Z,100.00
2019-01-04T08:32:43.877Z,100.00
2019-01-04T08:35:13.342Z,100.00
2019-01-04T08:37:43.073Z,100.00
2019-01-04T08:40:12.838Z,100.00
2019-01-04T08:42:42.301Z,100.00
2019-01-04T08:45:11.748Z,100.00
2019-01-04T08:47:41.218Z,100.00
2019-01-04T08:50:10.933Z,100.00
2019-01-04T08:52:40.722Z,100.00
2019-01-04T08:55:10.174Z,100.00
2019-01-04T08:57:40.040Z,100.00
2019-01-04T09:00:13.052Z,100.00
2019-01-04T09:02:42.785Z,100.00
2019-01-04T09:05:12.214Z,100.00
2019-01-04T09:07:41.696Z,100.00
2019-01-04T09:10:11.146Z,100.00
2019-01-04T09:12:40.972Z,100.00
2019-01-04T09:15:10.423Z,100.00
2019-01-04T09:17:39.880Z,100.00
2019-01-04T09:20:09.792Z,100.00
2019-01-04T09:22:39.321Z,100.00
2019-01-04T09:25:09.240Z,100.00
2019-01-04T09:27:40.925Z,100.00
2019-01-04T09:30:12.066Z,100.00
2019-01-04T09:32:41.530Z,100.00
2019-01-04T09:35:10.980Z,100.00
2019-01-04T09:37:40.444Z,100.00
2019-01-04T09:40:09.969Z,100.00
2019-01-04T09:42:40.094Z,100.00
2019-01-04T09:45:09.810Z,100.00
2019-01-04T09:47:39.278Z,100.00
2019-01-04T09:50:08.994Z,100.00
2019-01-04T09:52:38.444Z,100.00
2019-01-04T09:55:07.908Z,100.00
2019-01-04T09:57:37.483Z,100.00
2019-01-04T10:00:09.383Z,100.00
2019-01-04T10:02:38.842Z,100.00
2019-01-04T10:05:08.860Z,100.00
2019-01-04T10:07:38.323Z,100.00
2019-01-04T10:10:09.313Z,100.00
2019-01-04T10:12:39.938Z,100.00
2019-01-04T10:15:14.657Z,100.00
2019-01-04T10:17:44.129Z,100.00
2019-01-04T10:20:13.601Z,100.00
2019-01-04T10:22:43.043Z,100.00
2019-01-04T10:25:12.506Z,100.00
2019-01-04T10:27:41.965Z,100.00
2019-01-04T10:30:14.654Z,100.00
2019-01-04T10:32:44.189Z,100.00
2019-01-04T10:35:13.674Z,100.00
2019-01-04T10:37:43.118Z,100.00
2019-01-04T10:40:12.583Z,100.00
2019-01-04T10:42:42.042Z,100.00
2019-01-04T10:45:11.836Z,100.00
2019-01-04T10:47:41.458Z,100.00
2019-01-04T10:50:10.969Z,100.00
2019-01-04T10:52:40.438Z,100.00
2019-01-04T10:55:09.902Z,100.00
2019-01-04T10:57:39.351Z,100.00
2019-01-04T11:00:10.813Z,100.00
2019-01-04T11:02:40.264Z,100.00
2019-01-04T11:05:09.982Z,100.00
2019-01-04T11:07:39.441Z,100.00
2019-01-04T11:10:11.833Z,99.97
2019-01-04T11:12:41.286Z,99.97
2019-01-04T11:15:10.729Z,100.00
2019-01-04T11:17:40.256Z,99.78
2019-01-04T11:20:29.364Z,99.24
2019-01-04T11:23:01.765Z,99.69
2019-01-04T11:25:54.206Z,98.78
2019-01-04T11:28:41.932Z,98.08
2019-01-04T11:31:40.123Z,98.07
2019-01-04T11:34:24.541Z,97.11
2019-01-04T11:37:03.236Z,97.14
2019-01-04T11:39:35.862Z,96.98
2019-01-04T11:42:11.974Z,96.41
2019-01-04T11:44:53.439Z,96.67
2019-01-04T11:47:47.109Z,96.17
2019-01-04T11:50:32.284Z,96.59
2019-01-04T11:53:03.723Z,96.60
2019-01-04T11:55:33.446Z,97.19
2019-01-04T11:58:02.884Z,97.48
2019-01-04T12:00:32.337Z,97.64
2019-01-04T12:03:01.789Z,97.71
2019-01-04T12:05:31.257Z,97.76
2019-01-04T12:08:00.700Z,97.89
2019-01-04T12:10:30.156Z,98.22
2019-01-04T12:12:59.875Z,97.33
2019-01-04T12:15:29.401Z,97.67
2019-01-04T12:17:58.846Z,97.52
2019-01-04T12:20:28.616Z,97.55
2019-01-04T12:22:58.041Z,97.57
2019-01-04T12:25:27.503Z,97.44
2019-01-04T12:27:56.942Z,98.18
2019-01-04T12:30:26.398Z,98.13
2019-01-04T12:32:55.845Z,98.37
2019-01-04T12:35:25.301Z,98.53
2019-01-04T12:37:54.784Z,99.06
2019-01-04T12:40:24.236Z,98.67
2019-01-04T12:42:54.253Z,98.38
2019-01-04T12:45:23.732Z,98.75
2019-01-04T12:47:53.172Z,98.85
2019-01-04T12:50:22.637Z,99.11
2019-01-04T12:52:52.375Z,99.37
2019-01-04T12:55:22.898Z,99.94
2019-01-04T12:57:52.345Z,100.00
2019-01-04T13:00:21.828Z,100.00
2019-01-04T13:02:51.269Z,100.00
2019-01-04T13:05:21.052Z,100.00
2019-01-04T13:07:50.502Z,100.00
2019-01-04T13:10:19.961Z,100.00
2019-01-04T13:12:49.675Z,100.00
2019-01-04T13:15:19.479Z,100.00
2019-01-04T13:17:48.923Z,100.00
2019-01-04T13:20:18.637Z,100.00
2019-01-04T13:22:48.080Z,100.00
2019-01-04T13:25:17.542Z,100.00
2019-01-04T13:27:47.006Z,100.00
2019-01-04T13:30:16.473Z,100.00
2019-01-04T13:32:46.179Z,100.00
2019-01-04T13:35:15.653Z,100.00
2019-01-04T13:37:45.107Z,100.00
2019-01-04T13:40:14.634Z,100.00
2019-01-04T13:42:44.074Z,100.00
2019-01-04T13:45:13.538Z,100.00
2019-01-04T13:47:43.252Z,100.00
2019-01-04T13:50:12.973Z,100.00
2019-01-04T13:52:42.497Z,100.00
2019-01-04T13:55:11.956Z,100.00
2019-01-04T13:57:42.584Z,100.00
2019-01-04T14:00:12.114Z,100.00
2019-01-04T14:02:41.564Z,100.00
2019-01-04T14:05:11.022Z,100.00
2019-01-04T14:07:40.832Z,100.00
2019-01-04T14:10:10.362Z,100.00
2019-01-04T14:12:39.807Z,100.00
2019-01-04T14:15:09.406Z,100.00
2019-01-04T14:17:39.910Z,100.00
2019-01-04T14:20:09.605Z,100.00
2019-01-04T14:22:39.323Z,100.00
2019-01-04T14:25:08.853Z,100.00
2019-01-04T14:27:38.624Z,100.00
2019-01-04T14:30:10.813Z,100.00
2019-01-04T14:32:40.269Z,100.00
2019-01-04T14:35:09.903Z,100.00
2019-01-04T14:37:39.359Z,100.00
2019-01-04T14:40:10.657Z,100.00
2019-01-04T14:42:40.477Z,100.00
2019-01-04T14:45:09.970Z,100.00
2019-01-04T14:47:39.415Z,100.00
2019-01-04T14:50:11.014Z,100.00
2019-01-04T14:52:41.339Z,100.00
2019-01-04T14:55:10.797Z,100.00
2019-01-04T14:57:40.250Z,100.00
2019-01-04T15:00:11.742Z,100.00
2019-01-04T15:02:41.200Z,100.00
2019-01-04T15:05:10.662Z,100.00
2019-01-04T15:07:40.112Z,100.00
2019-01-04T15:10:09.936Z,100.00
2019-01-04T15:12:39.412Z,100.00
2019-01-04T15:15:08.933Z,100.00
2019-01-04T15:17:39.558Z,100.00
2019-01-04T15:20:10.262Z,100.00
2019-01-04T15:22:39.729Z,100.00
2019-01-04T15:25:09.204Z,100.00
2019-01-04T15:27:38.953Z,100.00
2019-01-04T15:30:10.368Z,100.00
2019-01-04T15:32:39.821Z,100.00
2019-01-04T15:35:09.620Z,100.00
2019-01-04T15:37:39.095Z,100.00
2019-01-04T15:40:08.915Z,100.00
2019-01-04T15:42:38.365Z,100.00
2019-01-04T15:45:08.979Z,100.00
2019-01-04T15:47:38.430Z,100.00
2019-01-04T15:50:08.815Z,100.00
2019-01-04T15:52:38.280Z,100.00
2019-01-04T15:55:07.759Z,100.00
2019-01-04T15:57:37.203Z,100.00
2019-01-04T16:00:11.449Z,100.00
2019-01-04T16:02:40.902Z,100.00
2019-01-04T16:05:11.064Z,100.00
2019-01-04T16:07:40.910Z,100.00
2019-01-04T16:10:10.493Z,100.00
2019-01-04T16:12:39.964Z,100.00
2019-01-04T16:15:10.378Z,100.00
2019-01-04T16:17:39.841Z,100.00
2019-01-04T16:20:11.909Z,100.00
2019-01-04T16:22:41.378Z,100.00
2019-01-04T16:25:10.831Z,100.00
2019-01-04T16:27:40.465Z,100.00
2019-01-04T16:30:11.256Z,100.00
2019-01-04T16:32:40.723Z,100.00
2019-01-04T16:35:10.186Z,100.00
2019-01-04T16:37:40.507Z,100.00
2019-01-04T16:40:09.961Z,100.00
2019-01-04T16:42:40.187Z,100.00
2019-01-04T16:45:10.135Z,100.00
2019-01-04T16:47:39.941Z,100.00
2019-01-04T16:50:09.656Z,100.00
2019-01-04T16:52:39.118Z,100.00
2019-01-04T16:55:09.249Z,100.00
2019-01-04T16:57:38.704Z,100.00
2019-01-04T17:00:10.774Z,100.00
2019-01-04T17:02:40.218Z,100.00
2019-01-04T17:05:09.966Z,100.00
2019-01-04T17:07:39.457Z,100.00
2019-01-04T17:10:09.381Z,100.00
2019-01-04T17:12:39.093Z,100.00
2019-01-04T17:15:08.607Z,100.00
2019-01-04T17:17:38.085Z,100.00
2019-01-04T17:20:07.602Z,100.00
2019-01-04T17:22:37.061Z,100.00
2019-01-04T17:25:07.759Z,100.00
2019-01-04T17:27:37.221Z,100.00
2019-01-04T17:30:09.231Z,100.00
2019-01-04T17:32:38.701Z,100.00
2019-01-04T17:35:08.150Z,100.00
2019-01-04T17:37:37.604Z,100.00
2019-01-04T17:40:08.808Z,100.00
2019-01-04T17:42:38.396Z,100.00
2019-01-04T17:45:08.211Z,100.00
2019-01-04T17:47:38.033Z,100.00
2019-01-04T17:50:08.548Z,100.00
2019-01-04T17:52:38.362Z,100.00
2019-01-04T17:55:08.137Z,100.00
2019-01-04T17:57:37.611Z,100.00
2019-01-04T18:00:09.432Z,100.00
2019-01-04T18:02:38.887Z,100.00
2019-01-04T18:05:08.349Z,100.00
2019-01-04T18:07:37.848Z,100.00
2019-01-04T18:10:08.536Z,100.00
2019-01-04T18:12:37.990Z,100.00
2019-01-04T18:15:07.883Z,100.00
2019-01-04T18:17:37.346Z,100.00
2019-01-04T18:20:10.955Z,100.00
2019-01-04T18:22:39.695Z,100.00
2019-01-04T18:25:09.162Z,100.00
2019-01-04T18:27:38.611Z,100.00
2019-01-04T18:30:09.623Z,100.00
2019-01-04T18:32:39.069Z,100.00
2019-01-04T18:35:08.591Z,100.00
2019-01-04T18:37:38.067Z,100.00
2019-01-04T18:40:09.160Z,100.00
2019-01-04T18:42:38.686Z,100.00
2019-01-04T18:45:08.141Z,100.00
2019-01-04T18:47:39.424Z,100.00
2019-01-04T18:50:11.752Z,100.00
2019-01-04T18:52:41.211Z,100.00
2019-01-04T18:55:10.673Z,100.00
2019-01-04T18:57:40.385Z,100.00
2019-01-04T19:00:11.087Z,100.00
2019-01-04T19:02:40.803Z,100.00
2019-01-04T19:05:10.302Z,100.00
2019-01-04T19:07:39.787Z,100.00
2019-01-04T19:10:09.874Z,100.00
2019-01-04T19:12:39.642Z,100.00
2019-01-04T19:15:12.009Z,100.00
2019-01-04T19:17:42.450Z,100.00
2019-01-04T19:20:11.903Z,100.00
2019-01-04T19:22:41.364Z,100.00
2019-01-04T19:25:10.813Z,100.00
2019-01-04T19:27:40.302Z,100.00
2019-01-04T19:30:10.191Z,100.00
2019-01-04T19:32:40.003Z,100.00
2019-01-04T19:35:09.478Z,100.00
2019-01-04T19:37:40.703Z,100.00
2019-01-04T19:40:10.166Z,100.00
2019-01-04T19:42:39.693Z,100.00
2019-01-04T19:45:09.152Z,100.00
2019-01-04T19:47:38.613Z,100.00
2019-01-04T19:50:16.833Z,100.00
2019-01-04T19:52:46.303Z,100.00
2019-01-04T19:55:16.308Z,100.00
2019-01-04T19:57:47.025Z,100.00
2019-01-04T20:00:16.954Z,100.00
2019-01-04T20:02:46.414Z,100.00
2019-01-04T20:05:16.342Z,100.00
2019-01-04T20:08:05.041Z,100.00
2019-01-04T20:10:54.231Z,100.00
2019-01-04T20:14:18.283Z,100.00
2019-01-04T20:17:08.286Z,100.00
2019-01-04T20:19:39.915Z,100.00
2019-01-04T20:22:27.093Z,100.00
2019-01-04T20:24:58.183Z,100.00
2019-01-04T20:27:29.289Z,100.00
2019-01-04T20:30:12.615Z,100.00
2019-01-04T20:32:55.952Z,100.00
2019-01-04T20:35:27.042Z,100.00
2019-01-04T20:38:14.055Z,100.00
2019-01-04T20:40:45.206Z,100.00
2019-01-04T20:43:31.434Z,100.00
2019-01-04T20:46:03.192Z,100.00
2019-01-04T20:48:50.593Z,100.00
2019-01-04T20:51:24.343Z,100.00
2019-01-04T20:54:11.602Z,100.00
2019-01-04T20:56:58.573Z,100.00
2019-01-04T20:59:46.139Z,100.00
2019-01-04T21:02:19.939Z,100.00
2019-01-04T21:05:07.184Z,100.00
2019-01-04T21:07:38.285Z,100.00
2019-01-04T21:10:31.093Z,100.00
2019-01-04T21:13:07.596Z,100.00
2019-01-04T21:15:44.788Z,100.00
2019-01-04T21:18:24.883Z,100.00
2019-01-04T21:20:58.914Z,100.00
2019-01-04T21:23:30.349Z,100.00
2019-01-04T21:26:17.874Z,100.00
2019-01-04T21:28:54.688Z,100.00
2019-01-04T21:31:40.820Z,100.00
2019-01-04T21:34:23.772Z,100.00
2019-01-04T21:37:03.690Z,100.00
2019-01-04T21:39:46.917Z,100.00
2019-01-04T21:42:34.214Z,100.00
2019-01-04T21:45:05.322Z,100.00
2019-01-04T21:47:45.325Z,100.00
2019-01-04T21:50:22.074Z,100.00
2019-01-04T21:52:59.226Z,100.00
2019-01-04T21:55:30.315Z,100.00
2019-01-04T21:58:16.565Z,100.00
2019-01-04T22:00:53.669Z,100.00
2019-01-04T22:03:40.992Z,100.00
2019-01-04T22:06:14.635Z,100.00
2019-01-04T22:08:45.806Z,100.00
2019-01-04T22:11:32.782Z,100.00
2019-01-04T22:14:09.807Z,100.00
2019-01-04T22:16:52.853Z,100.00
2019-01-04T22:19:39.248Z,100.00
2019-01-04T22:22:13.313Z,100.00
2019-01-04T22:24:44.431Z,100.00
2019-01-04T22:27:18.063Z,100.00
2019-01-04T22:30:07.207Z,100.00
2019-01-04T22:32:46.955Z,100.00
2019-01-04T22:35:27.101Z,100.00
2019-01-04T22:38:07.308Z,100.00
2019-01-04T22:40:38.408Z,100.00
2019-01-04T22:43:28.270Z,100.00
2019-01-04T22:46:05.287Z,100.00
2019-01-04T22:48:52.540Z,100.00
2019-01-04T22:51:41.354Z,100.00
2019-01-04T22:54:12.883Z,100.00
2019-01-04T22:56:58.960Z,100.00
2019-01-04T22:59:30.132Z,100.00
2019-01-04T23:02:01.215Z,100.00
2019-01-04T23:04:48.827Z,100.00
2019-01-04T23:07:32.436Z,100.00
2019-01-04T23:10:09.256Z,100.00
2019-01-04T23:12:52.454Z,100.00
2019-01-04T23:15:26.520Z,100.00
2019-01-04T23:17:57.613Z,100.00
2019-01-04T23:20:48.051Z,100.00
2019-01-04T23:23:19.142Z,100.00
2019-01-04T23:26:06.459Z,100.00
2019-01-04T23:28:54.190Z,100.00
2019-01-04T23:31:25.640Z,100.00
2019-01-04T23:34:06.102Z,100.00
2019-01-04T23:36:53.405Z,100.00
2019-01-04T23:39:33.704Z,100.00
2019-01-04T23:42:13.630Z,100.00
2019-01-04T23:44:47.759Z,100.00
2019-01-04T23:47:35.022Z,100.00
2019-01-04T23:50:16.047Z,100.00
2019-01-04T23:52:56.146Z,100.00
2019-01-04T23:55:27.244Z,100.00
2019-01-04T23:58:04.100Z,100.00
